Time;durP1;ratioP1;P1;durP2;ratioP2;P2;SDS_P1;SDS_P2;PMS_P1;PMS_P2;Temp;Humidity;BMP_temperature;BMP_pressure;BME280_temperature;BME280_humidity;BME280_pressure;Samples;Min_cycle;Max_cycle;Signal;HPM_P1;HPM_P2
2021/06/15 00:01:49;;;;;;;5.60;2.80;;;;;;;-139.38;100.00;63230.50;5052038;28;20706;-68
2021/06/15 00:04:16;;;;;;;6.17;2.80;;;;;;;-139.38;100.00;63230.50;5052100;28;20923;-68
2021/06/15 00:06:44;;;;;;;5.20;2.50;;;;;;;-139.38;100.00;63230.50;5053518;28;20213;-68
2021/06/15 00:09:11;;;;;;;4.80;3.33;;;;;;;-139.38;100.00;63230.50;5051583;28;20209;-68
2021/06/15 00:11:39;;;;;;;4.90;2.70;;;;;;;-139.38;100.00;63230.50;5053043;28;20225;-68
2021/06/15 00:14:07;;;;;;;6.77;2.70;;;;;;;-139.38;100.00;63230.50;5051993;28;20670;-69
2021/06/15 00:16:34;;;;;;;3.93;2.60;;;;;;;-139.38;100.00;63230.50;5051025;28;20217;-68
2021/06/15 00:19:02;;;;;;;3.87;2.53;;;;;;;-139.38;100.00;63230.50;5055803;28;20212;-67
2021/06/15 00:21:29;;;;;;;5.70;2.80;;;;;;;-139.38;100.00;63230.50;5057977;28;21023;-68
2021/06/15 00:23:56;;;;;;;3.67;2.40;;;;;;;-139.38;100.00;63230.50;5051984;28;20207;-68
2021/06/15 00:26:24;;;;;;;6.83;3.00;;;;;;;-139.38;100.00;63230.50;5051576;28;20210;-68
2021/06/15 00:28:51;;;;;;;3.87;2.53;;;;;;;-139.38;100.00;63230.50;5050095;28;20673;-68
2021/06/15 00:31:23;;;;;;;5.43;2.70;;;;;;;-139.38;100.00;63230.50;5056594;28;20313;-70
2021/06/15 00:33:50;;;;;;;3.03;2.50;;;;;;;-139.38;100.00;63230.50;5052909;28;20728;-68
2021/06/15 00:36:18;;;;;;;6.43;2.50;;;;;;;-139.38;100.00;63230.50;5053040;28;20218;-67
2021/06/15 00:38:45;;;;;;;6.37;2.40;;;;;;;-139.38;100.00;63230.50;5049077;28;20209;-68
2021/06/15 00:41:13;;;;;;;4.47;2.80;;;;;;;-139.38;100.00;63230.50;5051384;28;20254;-67
2021/06/15 00:43:40;;;;;;;4.33;2.60;;;;;;;-139.38;100.00;63230.50;5048393;28;20210;-67
2021/06/15 00:46:08;;;;;;;5.77;2.60;;;;;;;-139.38;100.00;63230.50;5038719;28;20213;-68
2021/06/15 00:48:37;;;;;;;5.47;2.80;;;;;;;-139.38;100.00;63230.50;5054998;28;20220;-68
2021/06/15 00:51:06;;;;;;;4.40;2.60;;;;;;;-139.38;100.00;63230.50;5059481;28;20233;-67
2021/06/15 00:53:34;;;;;;;4.97;2.93;;;;;;;-139.38;100.00;63230.50;5050162;28;20206;-69
2021/06/15 00:56:02;;;;;;;4.87;2.40;;;;;;;-139.38;100.00;63230.50;5052379;28;20197;-68
2021/06/15 00:58:30;;;;;;;3.83;2.50;;;;;;;-139.38;100.00;63230.50;5047787;28;20218;-68
2021/06/15 01:00:57;;;;;;;3.13;2.50;;;;;;;-139.38;100.00;63230.50;5051814;28;20269;-68
2021/06/15 01:03:25;;;;;;;3.67;2.43;;;;;;;-139.38;100.00;63230.50;5051919;28;20206;-67
2021/06/15 01:05:54;;;;;;;4.70;2.57;;;;;;;-139.38;100.00;63230.50;5050796;28;20210;-68
2021/06/15 01:08:31;;;;;;;4.23;2.83;;;;;;;-139.38;100.00;63230.50;5049301;28;20667;-67
2021/06/15 01:11:03;;;;;;;5.57;3.00;;;;;;;-139.38;100.00;63230.50;5050932;28;20225;-68
2021/06/15 01:13:44;;;;;;;4.40;2.50;;;;;;;32.09;54.19;69502.81;5054259;28;20211;-68
2021/06/15 01:16:17;;;;;;;3.33;2.70;;;;;;;-139.38;100.00;63230.50;5052497;28;20670;-68
2021/06/15 01:18:49;;;;;;;5.87;3.13;;;;;;;31.67;54.08;69456.03;5054454;28;20201;-67
2021/06/15 01:21:18;;;;;;;5.93;3.10;;;;;;;-139.38;100.00;63230.50;5050907;28;20237;-68
2021/06/15 01:24:13;;;;;;;5.97;3.37;;;;;;;-139.38;100.00;63230.50;5050408;28;20220;-69
2021/06/15 01:27:04;;;;;;;4.43;2.80;;;;;;;-139.38;100.00;63230.50;5055973;28;20210;-68
2021/06/15 01:29:37;;;;;;;6.07;3.43;;;;;;;-139.38;100.00;63230.50;5051220;28;20663;-68
2021/06/15 01:32:07;;;;;;;3.83;3.03;;;;;;;-139.38;100.00;63230.50;5051346;28;20283;-68
2021/06/15 01:34:36;;;;;;;6.53;3.13;;;;;;;-139.38;100.00;63230.50;5049988;28;20210;-67
2021/06/15 01:37:07;;;;;;;4.80;2.63;;;;;;;-139.38;100.00;63230.50;5050913;28;20282;-68
2021/06/15 01:39:38;;;;;;;4.53;3.40;;;;;;;-139.38;100.00;63230.50;5050922;28;20215;-68
2021/06/15 01:42:11;;;;;;;5.50;2.93;;;;;;;-139.38;100.00;63230.50;5050388;28;20630;-68
2021/06/15 01:44:40;;;;;;;4.30;2.73;;;;;;;-139.38;100.00;63230.50;5053319;28;20218;-68
2021/06/15 01:47:09;;;;;;;5.57;3.00;;;;;;;-139.38;100.00;63230.50;5056074;28;20580;-67
2021/06/15 01:49:41;;;;;;;3.87;2.80;;;;;;;-139.38;100.00;63230.50;5051829;28;20693;-68
2021/06/15 01:52:10;;;;;;;6.17;3.33;;;;;;;-139.38;100.00;63230.50;5051642;28;20272;-67
2021/06/15 01:54:38;;;;;;;5.47;3.30;;;;;;;-139.38;100.00;63230.50;5053891;28;20256;-67
2021/06/15 01:57:06;;;;;;;6.93;2.87;;;;;;;-139.38;100.00;63230.50;5045962;28;20198;-67
2021/06/15 01:59:35;;;;;;;5.80;2.97;;;;;;;31.27;55.60;69410.25;5051446;28;20216;-67
2021/06/15 02:02:05;;;;;;;5.10;3.20;;;;;;;-139.38;100.00;63230.50;5055459;28;20237;-67
2021/06/15 02:04:34;;;;;;;5.73;2.70;;;;;;;-139.38;100.00;63230.50;5052601;28;20221;-67
2021/06/15 02:07:03;;;;;;;6.23;3.30;;;;;;;-139.38;100.00;63230.50;5048410;28;20213;-68
2021/06/15 02:09:32;;;;;;;7.07;3.57;;;;;;;-139.38;100.00;63230.50;5053294;28;20576;-68
2021/06/15 02:12:00;;;;;;;6.10;3.10;;;;;;;30.87;57.12;69366.25;5051530;28;20221;-68
2021/06/15 02:14:28;;;;;;;5.40;3.70;;;;;;;30.48;58.79;69322.38;5049485;28;20213;-67
2021/06/15 02:16:57;;;;;;;4.27;3.30;;;;;;;30.11;58.50;69281.84;5050254;28;20579;-68
2021/06/15 02:19:27;;;;;;;6.13;2.97;;;;;;;29.77;57.56;69244.22;5055195;28;20205;-68
2021/06/15 02:21:57;;;;;;;4.90;2.87;;;;;;;29.46;57.87;69209.25;5051072;28;20225;-68
2021/06/15 02:24:28;;;;;;;4.60;2.73;;;;;;;29.15;59.15;69174.97;5055878;28;20205;-68
2021/06/15 02:26:56;;;;;;;7.00;3.70;;;;;;;28.85;58.33;69142.19;5050886;28;20206;-67
2021/06/15 02:29:23;;;;;;;4.63;3.00;;;;;;;28.59;57.74;69113.19;5052416;28;20221;-67
2021/06/15 02:31:53;;;;;;;6.17;2.93;;;;;;;28.34;58.35;69084.91;5050930;28;20233;-67
2021/06/15 02:34:22;;;;;;;5.43;3.10;;;;;;;28.09;59.63;69056.97;5050025;28;20216;-68
2021/06/15 02:36:51;;;;;;;5.70;3.20;;;;;;;27.86;59.74;69031.69;5052189;28;20278;-67
2021/06/15 02:39:22;;;;;;;5.03;3.13;;;;;;;27.64;59.64;69007.56;5049729;28;20218;-68
2021/06/15 02:41:53;;;;;;;5.83;3.43;;;;;;;27.46;57.28;68986.75;5054177;28;20246;-68
2021/06/15 02:44:23;;;;;;;3.90;3.00;;;;;;;27.28;57.79;68967.22;5050420;28;20210;-68
2021/06/15 02:46:51;;;;;;;4.07;2.77;;;;;;;27.12;57.94;68948.59;5053371;28;20661;-67
2021/06/15 02:49:21;;;;;;;6.07;3.63;;;;;;;26.95;58.02;68930.44;5055760;28;20201;-67
2021/06/15 02:52:03;;;;;;;3.97;3.13;;;;;;;26.79;59.12;68911.88;5049120;28;20564;-67
2021/06/15 02:54:35;;;;;;;5.40;3.30;;;;;;;26.62;59.95;68893.72;5045527;28;20217;-68
2021/06/15 02:57:04;;;;;;;5.93;3.63;;;;;;;26.49;57.76;68879.06;5057943;28;20205;-68
2021/06/15 02:59:31;;;;;;;5.83;3.03;;;;;;;26.36;58.88;68863.94;5050771;28;20571;-68
2021/06/15 03:01:58;;;;;;;5.77;2.93;;;;;;;26.22;60.41;68848.03;5049804;28;20237;-68
2021/06/15 03:04:25;;;;;;;3.80;2.83;;;;;;;26.09;59.93;68833.72;5048408;28;20212;-68
2021/06/15 03:06:54;;;;;;;4.77;3.00;;;;;;;25.97;60.16;68819.81;5048750;28;20200;-68
2021/06/15 03:09:22;;;;;;;5.03;3.13;;;;;;;25.85;61.09;68806.66;5051956;28;20585;-68
2021/06/15 03:11:52;;;;;;;5.57;3.43;;;;;;;25.73;60.62;68794.13;5057588;28;20260;-67
2021/06/15 03:14:22;;;;;;;5.70;3.37;;;;;;;25.63;60.70;68782.13;5053145;28;20217;-68
2021/06/15 03:16:50;;;;;;;5.63;3.30;;;;;;;25.51;61.89;68768.53;5059370;28;20602;-68
2021/06/15 03:19:22;;;;;;;6.60;3.43;;;;;;;25.40;61.25;68757.16;5053137;28;20674;-68
2021/06/15 03:21:55;;;;;;;5.17;3.53;;;;;;;25.31;61.77;68747.22;5051978;28;20598;-69
2021/06/15 03:24:24;;;;;;;5.10;3.13;;;;;;;25.24;61.21;68739.38;5056717;28;20223;-66
2021/06/15 03:26:59;;;;;;;6.10;3.33;;;;;;;25.18;59.52;68733.28;5051985;28;20202;-68
2021/06/15 03:29:29;;;;;;;5.17;3.20;;;;;;;25.12;60.07;68727.03;5053671;28;20625;-66
2021/06/15 03:32:00;;;;;;;4.83;3.40;;;;;;;25.06;60.61;68719.88;5054278;28;20222;-67
2021/06/15 03:34:30;;;;;;;6.43;3.60;;;;;;;25.03;58.86;68716.75;5052464;28;20553;-67
2021/06/15 03:36:58;;;;;;;4.67;3.27;;;;;;;25.00;58.76;68713.19;5052752;28;20198;-68
2021/06/15 03:39:27;;;;;;;5.40;3.30;;;;;;;24.96;58.97;68709.09;5049581;28;20209;-68
2021/06/15 03:41:58;;;;;;;4.23;3.13;;;;;;;24.93;58.04;68706.69;5054338;28;20230;-68
2021/06/15 03:44:25;;;;;;;7.30;3.40;;;;;;;24.93;57.72;68706.53;5052441;28;20220;-67
2021/06/15 03:46:56;;;;;;;5.93;3.57;;;;;;;24.90;58.27;68703.25;5052680;28;20202;-68
2021/06/15 03:49:24;;;;;;;6.83;3.37;;;;;;;24.87;57.83;68700.50;5052816;28;20597;-68
2021/06/15 03:51:54;;;;;;;4.17;3.00;;;;;;;24.85;58.01;68698.56;5049681;28;20229;-68
2021/06/15 03:54:23;;;;;;;5.03;3.03;;;;;;;24.83;58.57;68695.56;5061088;28;20211;-68
2021/06/15 03:56:52;;;;;;;4.73;3.37;;;;;;;24.79;59.36;68691.81;5054091;28;20225;-66
2021/06/15 03:59:22;;;;;;;7.47;3.97;;;;;;;24.76;59.12;68688.41;5055670;28;20212;-68
2021/06/15 04:01:51;;;;;;;4.90;3.40;;;;;;;24.74;59.54;68685.34;5054325;28;20232;-68
2021/06/15 04:04:19;;;;;;;6.07;3.40;;;;;;;24.72;58.36;68683.22;5053650;28;20586;-68
2021/06/15 04:06:50;;;;;;;5.23;3.23;;;;;;;24.71;59.22;68681.78;5053696;28;20220;-68
2021/06/15 04:09:19;;;;;;;6.83;3.23;;;;;;;24.72;56.84;68683.22;5052257;28;20612;-67
2021/06/15 04:11:48;;;;;;;9.27;3.67;;;;;;;24.72;57.65;68683.97;5052039;28;20226;-66
2021/06/15 04:14:17;;;;;;;6.03;3.53;;;;;;;24.73;57.94;68684.25;5051803;28;20208;-68
2021/06/15 04:16:45;;;;;;;10.10;3.67;;;;;;;24.73;58.22;68685.00;5052126;28;20208;-68
2021/06/15 04:19:14;;;;;;;8.80;3.57;;;;;;;24.73;58.87;68685.06;5053567;28;20626;-68
2021/06/15 04:21:45;;;;;;;5.77;3.33;;;;;;;24.75;57.04;68687.47;5054515;28;20248;-68
2021/06/15 04:24:15;;;;;;;5.77;3.70;;;;;;;24.77;57.23;68689.47;5049221;28;20218;-68
2021/06/15 04:26:43;;;;;;;5.90;3.53;;;;;;;24.79;57.72;68691.78;5053098;28;20638;-69
2021/06/15 04:29:11;;;;;;;9.80;3.80;;;;;;;24.82;56.65;68695.66;5054632;28;20212;-72
2021/06/15 04:31:41;;;;;;;6.50;3.30;;;;;;;24.85;56.63;68698.94;5053428;28;20221;-75
2021/06/15 04:34:08;;;;;;;4.83;3.17;;;;;;;24.90;54.92;68704.50;5050981;28;20227;-68
2021/06/15 04:36:37;;;;;;;8.53;3.60;;;;;;;24.94;55.00;68709.19;5052217;28;20217;-69
2021/06/15 04:39:08;;;;;;;7.60;3.87;;;;;;;24.99;54.84;68715.44;5052878;28;20204;-74
2021/06/15 04:41:37;;;;;;;4.97;3.40;;;;;;;25.05;54.16;68721.75;5071856;22;20237;-71
2021/06/15 04:44:06;;;;;;;7.07;3.60;;;;;;;25.09;54.76;68726.03;5034573;28;20224;-74
2021/06/15 04:46:39;;;;;;;5.53;3.40;;;;;;;25.16;53.47;68733.41;5033601;28;20214;-75
2021/06/15 04:49:12;;;;;;;7.50;3.67;;;;;;;25.24;51.59;68742.59;5028889;28;20207;-74
2021/06/15 04:51:40;;;;;;;7.63;3.43;;;;;;;25.30;50.93;68750.53;5039263;28;20223;-76
2021/06/15 04:54:08;;;;;;;6.80;3.30;;;;;;;25.37;50.45;68758.16;5041316;28;20210;-72
2021/06/15 04:56:36;;;;;;;6.73;3.80;;;;;;;25.43;50.87;68766.13;5031257;28;20208;-70
2021/06/15 04:59:03;;;;;;;9.03;3.33;;;;;;;25.50;51.18;68773.59;5039664;28;20210;-69
2021/06/15 05:01:31;;;;;;;8.10;3.80;;;;;;;25.57;50.42;68781.88;5029925;28;20233;-69
2021/06/15 05:03:58;;;;;;;4.67;3.10;;;;;;;25.67;47.82;68792.31;5031123;28;20588;-68
2021/06/15 05:06:27;;;;;;;5.97;3.13;;;;;;;25.69;50.92;68795.19;5033177;28;20202;-69
2021/06/15 05:08:58;;;;;;;7.27;3.90;;;;;;;25.78;48.22;68804.75;5037988;28;20206;-76
2021/06/15 05:11:26;;;;;;;5.60;3.10;;;;;;;25.83;49.62;68810.69;5038033;28;20316;-70
2021/06/15 05:13:55;;;;;;;9.77;3.30;;;;;;;25.92;46.37;68821.75;5036714;28;20218;-74
2021/06/15 05:16:23;;;;;;;9.40;3.57;;;;;;;25.95;49.95;68824.63;5039737;28;20203;-70
2021/06/15 05:18:50;;;;;;;7.37;3.23;;;;;;;26.02;47.96;68833.41;5034085;28;20294;-71
2021/06/15 05:21:22;;;;;;;6.13;3.00;;;;;;;26.09;47.08;68840.41;5028015;28;20232;-71
2021/06/15 05:23:55;;;;;;;3.37;2.80;;;;;;;26.16;46.59;68848.72;5038529;28;20307;-73
2021/06/15 05:26:22;;;;;;;8.20;3.20;;;;;;;26.28;45.23;68862.44;5035052;28;20786;-72
2021/06/15 05:28:51;;;;;;;9.83;3.23;;;;;;;26.32;47.27;68867.22;5033958;28;20202;-74
2021/06/15 05:31:18;;;;;;;5.07;2.87;;;;;;;26.41;45.49;68877.50;5032089;28;20292;-72
2021/06/15 05:33:45;;;;;;;5.93;3.33;;;;;;;26.52;44.68;68889.56;5029257;28;20209;-73
2021/06/15 05:36:12;;;;;;;8.13;3.07;;;;;;;26.54;47.97;68891.84;5036822;28;20202;-73
2021/06/15 05:38:40;;;;;;;6.07;3.60;;;;;;;26.62;45.29;68900.63;5038975;28;20202;-77
2021/06/15 05:41:09;;;;;;;7.17;3.23;;;;;;;26.67;45.69;68906.66;5031517;28;20235;-71
2021/06/15 05:43:36;;;;;;;10.43;3.70;;;;;;;26.81;42.20;68921.81;5024349;28;20222;-71
2021/06/15 05:46:03;;;;;;;5.47;3.07;;;;;;;26.87;43.97;68929.28;5035248;28;20301;-70
2021/06/15 05:48:31;;;;;;;8.07;3.13;;;;;;;26.98;43.17;68941.50;5035465;28;20213;-69
2021/06/15 05:50:58;;;;;;;5.30;2.90;;;;;;;27.09;42.08;68954.41;5032816;28;20226;-74
2021/06/15 05:53:27;;;;;;;8.10;3.23;;;;;;;27.23;39.66;68970.47;5027824;28;20298;-70
2021/06/15 05:55:57;;;;;;;4.43;3.20;;;;;;;27.38;39.74;68986.31;5041168;28;20202;-70
2021/06/15 05:58:29;;;;;;;9.47;3.63;;;;;;;27.45;42.25;68994.22;5040257;28;20207;-74
2021/06/15 06:00:56;;;;;;;9.27;3.73;;;;;;;27.55;40.22;69005.88;5029978;28;20284;-70
2021/06/15 06:03:31;;;;;;;9.07;3.17;;;;;;;27.68;39.55;69021.00;5031648;28;20660;-71
2021/06/15 06:08:43;;;;;;;9.37;3.40;;;;;;;27.83;39.43;69039.22;5029546;28;20658;-70
2021/06/15 06:11:11;;;;;;;10.23;3.70;;;;;;;27.94;39.41;69051.25;5034527;28;20222;-68
2021/06/15 06:13:39;;;;;;;6.10;3.23;;;;;;;28.04;40.29;69062.41;5030775;28;20254;-69
2021/06/15 06:16:09;;;;;;;6.30;3.27;;;;;;;28.02;45.23;69060.69;5030072;28;20206;-68
2021/06/15 06:18:36;;;;;;;7.40;3.50;;;;;;;28.07;42.14;69066.00;5032747;28;20252;-66
2021/06/15 06:21:06;;;;;;;5.83;2.90;;;;;;;28.14;41.09;69074.03;5030736;28;20230;-68
2021/06/15 06:23:36;;;;;;;8.20;3.23;;;;;;;28.22;41.23;69084.16;5028934;28;20261;-69
2021/06/15 06:26:03;;;;;;;4.93;3.40;;;;;;;28.29;40.19;69091.59;5026448;28;20287;-68
2021/06/15 06:28:30;;;;;;;8.80;3.73;;;;;;;28.39;39.36;69102.78;5031049;28;20236;-67
2021/06/15 06:30:59;;;;;;;6.67;3.40;;;;;;;28.44;40.32;69108.34;5030546;28;20230;-68
2021/06/15 06:33:27;;;;;;;9.47;3.30;;;;;;;28.48;40.67;69113.31;5030858;28;20202;-68
2021/06/15 06:35:54;;;;;;;10.70;3.50;;;;;;;28.44;44.08;69109.03;5030025;28;21627;-68
2021/06/15 06:38:21;;;;;;;8.63;3.27;;;;;;;28.47;42.24;69112.47;5030633;28;20680;-67
2021/06/15 06:40:49;;;;;;;5.83;3.67;;;;;;;28.48;41.91;69114.25;5030305;28;20297;-70
2021/06/15 06:43:16;;;;;;;5.37;2.97;;;;;;;28.53;39.74;69119.31;5031592;28;20220;-67
2021/06/15 06:45:43;;;;;;;9.30;3.20;;;;;;;28.52;42.03;69118.47;5033857;28;20215;-67
2021/06/15 06:48:12;;;;;;;7.83;3.33;;;;;;;28.48;44.15;69114.50;5034416;28;20210;-67
2021/06/15 06:50:39;;;;;;;7.03;3.47;;;;;;;28.53;40.55;69120.00;5034624;28;20207;-68
2021/06/15 06:53:07;;;;;;;8.70;3.30;;;;;;;28.55;40.80;69122.66;5033718;28;20210;-68
2021/06/15 06:55:34;;;;;;;8.77;3.90;;;;;;;28.54;42.04;69121.09;5026412;28;20208;-68
2021/06/15 06:58:01;;;;;;;10.60;3.57;;;;;;;28.61;39.41;69129.09;5026585;28;20216;-68
2021/06/15 07:00:29;;;;;;;7.87;3.13;;;;;;;28.76;36.61;69145.91;5034087;28;20242;-68
2021/06/15 07:02:57;;;;;;;6.60;2.80;;;;;;;28.86;38.33;69157.56;5033599;28;20281;-68
2021/06/15 07:05:25;;;;;;;6.57;3.23;;;;;;;28.86;40.27;69158.03;5032760;28;20212;-68
2021/06/15 07:07:53;;;;;;;7.90;3.33;;;;;;;28.92;39.09;69164.81;5033078;28;20209;-68
2021/06/15 07:10:20;;;;;;;7.37;3.67;;;;;;;28.88;42.72;69160.28;5034323;28;20231;-68
2021/06/15 07:12:49;;;;;;;6.73;3.03;;;;;;;28.91;40.13;69163.91;5033994;28;20632;-68
2021/06/15 07:15:17;;;;;;;8.10;3.20;;;;;;;29.02;37.26;69177.28;5033317;28;20205;-68
2021/06/15 07:17:44;;;;;;;6.93;3.10;;;;;;;29.04;39.83;69179.34;5034010;28;20208;-68
2021/06/15 07:20:12;;;;;;;7.97;3.33;;;;;;;29.16;36.60;69192.81;5032230;28;20231;-68
2021/06/15 07:22:40;;;;;;;9.03;3.03;;;;;;;29.23;36.94;69200.94;5033918;28;20233;-68
2021/06/15 07:25:09;;;;;;;8.93;3.80;;;;;;;29.25;39.73;69202.50;5036752;28;20316;-73
2021/06/15 07:27:36;;;;;;;7.47;3.07;;;;;;;29.31;39.26;69208.78;5031836;28;20213;-74
2021/06/15 07:30:05;;;;;;;9.30;3.33;;;;;;;29.43;35.18;69222.19;5036492;28;20205;-69
2021/06/15 07:32:33;;;;;;;10.83;3.67;;;;;;;29.42;39.67;69220.88;5034454;28;20233;-68
2021/06/15 07:35:00;;;;;;;9.55;2.83;;;;;;;29.47;37.86;69227.25;5028443;28;20578;-68
2021/06/15 07:37:27;;;;;;;9.17;3.73;;;;;;;29.48;38.78;69228.41;5032900;28;20210;-69
2021/06/15 07:39:56;;;;;;;10.57;3.60;;;;;;;29.53;37.66;69233.25;5033872;28;20215;-68
2021/06/15 07:42:25;;;;;;;6.95;3.95;;;;;;;29.58;36.44;69239.31;5035683;28;20242;-68
2021/06/15 07:44:52;;;;;;;7.20;3.33;;;;;;;29.70;34.48;69253.28;5033151;28;20317;-68
2021/06/15 07:47:20;;;;;;;7.57;3.22;;;;;;;29.74;36.99;69257.88;5035809;28;20210;-67
2021/06/15 07:49:47;;;;;;;7.80;2.83;;;;;;;29.85;34.97;69270.66;5037535;28;20685;-67
2021/06/15 07:52:14;;;;;;;6.15;3.10;;;;;;;29.92;35.73;69278.56;5033629;28;20325;-68
2021/06/15 07:54:42;;;;;;;7.75;3.20;;;;;;;30.01;35.17;69288.56;5037556;28;20681;-68
2021/06/15 07:57:11;;;;;;;7.47;3.10;;;;;;;30.08;35.33;69296.31;5036033;28;20237;-68
2021/06/15 07:59:38;;;;;;;8.90;3.47;;;;;;;30.12;36.03;69300.00;5032634;28;20210;-68
2021/06/15 08:02:06;;;;;;;7.72;3.08;;;;;;;30.18;35.13;69306.78;5032509;28;20226;-69
2021/06/15 08:04:33;;;;;;;9.63;3.10;;;;;;;30.25;34.47;69315.56;5037574;28;20234;-69
2021/06/15 08:07:00;;;;;;;6.78;2.97;;;;;;;30.37;33.94;69328.34;5033889;28;20198;-69
2021/06/15 08:09:27;;;;;;;6.65;2.83;;;;;;;30.48;33.29;69340.69;5034368;28;20200;-68
2021/06/15 08:11:55;;;;;;;5.13;3.15;;;;;;;30.56;32.87;69350.78;5034297;28;20231;-68
2021/06/15 08:14:23;;;;;;;10.77;2.75;;;;;;;30.73;31.31;69370.06;5035598;28;20206;-68
2021/06/15 08:16:50;;;;;;;6.68;3.15;;;;;;;30.84;32.60;69381.81;5033029;28;20203;-68
2021/06/15 08:19:18;;;;;;;11.18;3.47;;;;;;;30.85;34.11;69382.56;5033482;28;20213;-68
2021/06/15 08:21:45;;;;;;;10.52;3.10;;;;;;;30.95;33.01;69393.91;5040923;28;20230;-69
2021/06/15 08:24:15;;;;;;;7.82;3.45;;;;;;;31.10;31.92;69410.47;5036221;28;20230;-69
2021/06/15 08:26:42;;;;;;;9.75;3.25;;;;;;;31.23;30.17;69426.34;5032888;28;20740;-69
2021/06/15 08:29:09;;;;;;;7.20;2.78;;;;;;;31.34;30.82;69437.81;5038464;28;20198;-70
2021/06/15 08:31:38;;;;;;;5.68;2.67;;;;;;;31.35;32.97;69440.00;5033542;28;20237;-70
2021/06/15 08:34:05;;;;;;;5.78;2.70;;;;;;;31.42;31.00;69447.50;5031725;28;20210;-68
2021/06/15 08:36:32;;;;;;;5.90;2.35;;;;;;;31.50;31.36;69456.84;5032815;28;20202;-69
2021/06/15 08:39:03;;;;;;;6.60;2.63;;;;;;;31.52;32.43;69459.44;5034474;28;20203;-69
2021/06/15 08:41:31;;;;;;;7.50;2.40;;;;;;;31.66;30.63;69475.25;5036330;28;20236;-68
2021/06/15 08:43:58;;;;;;;8.23;2.75;;;;;;;31.75;30.97;69485.53;5035600;28;20706;-69
2021/06/15 08:46:26;;;;;;;3.97;2.20;;;;;;;31.75;31.97;69485.59;5028262;28;20223;-67
2021/06/15 08:48:54;;;;;;;7.90;3.00;;;;;;;31.89;29.04;69502.03;5035662;28;20207;-68
2021/06/15 08:51:21;;;;;;;6.63;2.70;;;;;;;31.99;29.84;69514.03;5032763;28;20733;-69
2021/06/15 08:53:52;;;;;;;6.78;3.45;;;;;;;32.12;28.68;69527.94;5035079;28;20202;-70
2021/06/15 08:56:23;;;;;;;10.77;3.08;;;;;;;32.30;27.13;69548.78;5034942;28;20212;-69
2021/06/15 08:58:59;;;;;;;6.88;2.83;;;;;;;32.26;31.91;69544.06;5033931;28;20225;-69
2021/06/15 09:01:27;;;;;;;10.13;2.90;;;;;;;32.30;29.42;69548.09;5036548;28;20226;-69
2021/06/15 09:03:55;;;;;;;4.28;2.47;;;;;;;32.30;29.65;69548.63;5031990;28;20733;-71
2021/06/15 09:06:23;;;;;;;8.18;2.72;;;;;;;32.36;28.31;69555.19;5035026;28;20229;-68
2021/06/15 09:08:55;;;;;;;4.75;2.60;;;;;;;32.37;30.19;69556.22;5035060;28;20199;-71
2021/06/15 09:11:23;;;;;;;5.28;2.45;;;;;;;32.43;29.07;69562.53;5035664;28;20230;-70
2021/06/15 09:13:51;;;;;;;5.32;2.92;;;;;;;32.46;29.77;69566.28;5029862;28;20222;-70
2021/06/15 09:16:24;;;;;;;4.80;2.65;;;;;;;32.55;29.05;69575.91;5033295;28;20230;-75
2021/06/15 09:18:53;;;;;;;4.90;2.97;;;;;;;32.58;29.18;69579.78;5032286;28;20206;-72
2021/06/15 09:21:46;;;;;;;6.40;2.03;;;;;;;32.59;30.21;69581.22;5032979;28;20222;-76
2021/06/15 09:24:15;;;;;;;4.93;2.40;;;;;;;32.60;29.01;69582.38;5017419;28;20226;-75
2021/06/15 09:27:10;;;;;;;5.00;2.47;;;;;;;32.62;28.11;69584.53;5031976;28;20234;-77
2021/06/15 09:29:43;;;;;;;7.00;2.80;;;;;;;32.68;28.86;69591.22;5030997;28;20203;-75
2021/06/15 09:32:12;;;;;;;3.10;2.10;;;;;;;32.73;28.50;69597.00;5034843;28;20587;-76
2021/06/15 09:34:47;;;;;;;4.90;2.40;;;;;;;32.83;27.31;69608.94;5028665;28;20671;-76
2021/06/15 09:37:16;;;;;;;3.15;2.00;;;;;;;32.88;27.53;69614.44;5034777;28;20201;-76
2021/06/15 09:39:44;;;;;;;4.78;1.85;;;;;;;32.94;27.20;69621.81;5032452;28;20208;-76
2021/06/15 09:42:13;;;;;;;5.15;2.00;;;;;;;33.03;26.10;69632.03;5035767;28;20227;-80
2021/06/15 09:44:40;;;;;;;4.78;2.13;;;;;;;33.09;25.99;69638.63;5030702;28;20229;-75
2021/06/15 09:47:09;;;;;;;4.07;2.30;;;;;;;33.18;25.38;69648.16;5032078;28;20234;-75
2021/06/15 09:49:37;;;;;;;3.85;1.75;;;;;;;33.28;24.95;69660.25;5035686;28;20247;-75
2021/06/15 09:52:18;;;;;;;4.07;2.25;;;;;;;33.36;24.55;69669.50;5024092;28;20225;-74
2021/06/15 09:54:47;;;;;;;4.25;1.85;;;;;;;33.49;24.50;69683.63;5030347;28;20280;-74
2021/06/15 09:57:23;;;;;;;3.88;2.20;;;;;;;33.59;24.59;69694.28;5031176;28;20234;-74
2021/06/15 10:00:08;;;;;;;4.65;1.75;;;;;;;33.67;24.82;69703.34;5031470;28;20221;-75
2021/06/15 10:02:36;;;;;;;2.97;1.70;;;;;;;33.76;24.20;69713.56;5033221;28;20226;-76
2021/06/15 10:05:05;;;;;;;9.48;2.10;;;;;;;33.69;26.24;69705.63;5023849;28;20237;-76
2021/06/15 10:07:34;;;;;;;4.20;2.10;;;;;;;33.71;24.80;69708.34;5031405;28;20202;-74
2021/06/15 10:10:01;;;;;;;2.47;1.80;;;;;;;33.72;25.03;69709.53;5029668;28;20213;-75
2021/06/15 10:12:28;;;;;;;2.67;1.92;;;;;;;33.71;25.20;69708.19;5029592;28;20230;-75
2021/06/15 10:14:57;;;;;;;3.42;2.15;;;;;;;33.72;25.02;69708.94;5030365;28;20548;-74
2021/06/15 10:17:25;;;;;;;4.93;1.83;;;;;;;33.85;22.94;69723.00;5031086;28;20205;-72
2021/06/15 10:19:53;;;;;;;4.30;2.28;;;;;;;33.96;22.87;69735.66;5028456;28;20267;-75
2021/06/15 10:22:21;;;;;;;4.80;2.10;;;;;;;34.03;23.44;69743.81;5034134;28;20234;-74
2021/06/15 10:24:50;;;;;;;3.10;1.80;;;;;;;34.05;25.40;69745.72;5031775;28;20227;-75
2021/06/15 10:27:18;;;;;;;3.60;2.20;;;;;;;34.08;24.13;69749.75;5031480;28;20209;-72
2021/06/15 10:29:51;;;;;;;4.82;2.17;;;;;;;34.07;24.57;69748.63;5029463;28;20209;-74
2021/06/15 10:32:22;;;;;;;3.28;1.85;;;;;;;34.03;25.06;69742.94;5033681;28;20221;-74
2021/06/15 10:34:53;;;;;;;3.55;2.03;;;;;;;34.15;22.44;69756.94;5030490;28;20218;-74
2021/06/15 10:37:40;;;;;;;3.45;1.73;;;;;;;34.25;22.34;69768.59;5030979;28;20216;-74
2021/06/15 10:40:36;;;;;;;5.60;2.20;;;;;;;34.36;22.35;69781.78;5032014;28;20211;-75
2021/06/15 10:43:13;;;;;;;4.00;1.83;;;;;;;34.45;22.01;69791.84;5025977;28;20653;-73
2021/06/15 10:45:40;;;;;;;2.80;1.58;;;;;;;34.45;23.68;69791.44;5031602;28;20272;-74
2021/06/15 10:48:28;;;;;;;5.60;1.90;;;;;;;34.47;23.39;69793.25;5031026;28;20208;-74
2021/06/15 10:50:57;;;;;;;6.18;2.08;;;;;;;34.52;22.63;69799.75;5031294;28;20227;-74
2021/06/15 10:53:35;;;;;;;3.72;1.95;;;;;;;34.66;21.58;69815.56;5030655;28;20211;-73
2021/06/15 10:56:05;;;;;;;7.18;2.42;;;;;;;34.75;22.06;69826.06;5022991;28;20285;-75
2021/06/15 10:59:01;;;;;;;3.22;1.95;;;;;;;34.95;20.67;69848.00;5038302;28;20202;-74
2021/06/15 11:01:29;;;;;;;5.10;2.00;;;;;;;34.95;22.75;69848.56;5034131;28;20226;-74
2021/06/15 11:03:58;;;;;;;2.92;1.77;;;;;;;35.02;21.45;69857.13;5029818;28;20933;-73
2021/06/15 11:06:46;;;;;;;3.10;1.63;;;;;;;35.15;20.07;69871.22;5030988;28;20312;-73
2021/06/15 11:09:21;;;;;;;4.28;2.00;;;;;;;35.10;23.18;69865.88;5024717;28;20213;-74
2021/06/15 11:11:51;;;;;;;6.13;2.17;;;;;;;35.09;22.58;69864.03;5030482;28;20269;-76
2021/06/15 11:14:20;;;;;;;5.95;2.30;;;;;;;35.15;21.31;69870.53;5031620;28;20214;-71
2021/06/15 11:16:48;;;;;;;4.13;2.05;;;;;;;35.29;20.45;69886.13;5033845;28;20717;-71
2021/06/15 11:19:35;;;;;;;5.60;2.13;;;;;;;35.39;20.54;69898.28;5031079;28;20227;-72
2021/06/15 11:22:09;;;;;;;5.55;2.20;;;;;;;35.43;20.32;69902.16;5026910;28;20301;-72
2021/06/15 11:24:47;;;;;;;4.28;1.90;;;;;;;35.48;20.59;69907.94;5032637;28;20225;-72
2021/06/15 11:27:19;;;;;;;2.08;1.60;;;;;;;35.55;20.16;69916.25;5023842;28;20203;-72
2021/06/15 11:29:48;;;;;;;5.03;2.05;;;;;;;35.54;21.69;69915.56;5031970;28;20676;-72
2021/06/15 11:32:23;;;;;;;3.05;1.75;;;;;;;35.42;22.78;69900.78;5033672;28;20234;-73
2021/06/15 11:35:16;;;;;;;5.95;1.90;;;;;;;35.41;21.06;69899.44;5037371;28;20201;-71
2021/06/15 11:37:45;;;;;;;1.90;1.45;;;;;;;35.42;21.11;69901.16;5031181;28;20201;-70
2021/06/15 11:40:18;;;;;;;3.65;1.80;;;;;;;35.41;22.08;69899.28;5027738;28;20230;-71
2021/06/15 11:42:48;;;;;;;4.43;1.70;;;;;;;35.45;21.24;69903.66;5033712;28;20288;-71
2021/06/15 11:45:29;;;;;;;3.47;1.67;;;;;;;35.46;21.24;69904.38;5034041;28;20688;-72